PWSweather.com
Personal Weather Stations
Station Observations
WATERF01
WaterfordIE

WaterfordIE

Lat: 52.2412507, Lon: -7.1414691

Elevation: 65

Station Type: Davis Vantage Vue

www.waterfordweather.com

High Low Average
Temperature 45.8°F7.7°C 33.9°F1.1°C 39.1°F3.9°C
Dew Point 40.8°F4.9°C 32.6°F0.3°C 35.6°F2.0°C
Winds 10.4 mph 16.7 kmh Calm Calm 1.0 mph WSW1.6 kmh WSW
Wind Gusts 16.1 mph25.9 kmh -- 3.0 mph4.8 kmh
Humidity 98% 78% 87%
Pressure 29.51 in999.3 mb 29.16 in987.5 mb -
Precipitation 0.06 in1.5 mm - -
Hour Temp Dew Point Humidity Winds Wind Gusts Pressure Precip Precip Rate Daily Precip Total
12:00 AM 41.5°F5.3°C 37.9°F3.3°C 87% 3.5 mph E5.6 kmh E 8.1 mph13.0 kmh 29.20 in988.8 mb - 0.00 in0.0 mm 0.00 in0.0 mm
12:10 AM 41.0°F5.0°C 37.4°F3.0°C 87% 2.3 mph NE3.7 kmh NE 6.9 mph11.1 kmh 29.19 in988.5 mb - 0.01 in0.3 mm 0.01 in0.3 mm
12:20 AM 40.6°F4.8°C 37.0°F2.8°C 87% 3.5 mph ENE5.6 kmh ENE 11.5 mph18.5 kmh 29.18 in988.1 mb - 0.01 in0.3 mm 0.02 in0.5 mm
12:30 AM 40.1°F4.5°C 36.5°F2.5°C 87% 3.5 mph ENE5.6 kmh ENE 8.1 mph13.0 kmh 29.18 in988.1 mb - 0.02 in0.5 mm 0.04 in1.0 mm
12:40 AM 39.8°F4.3°C 36.6°F2.6°C 88% 5.8 mph NE9.3 kmh NE 9.2 mph14.8 kmh 29.17 in987.8 mb - 0.00 in0.0 mm 0.04 in1.0 mm
12:50 AM 39.6°F4.2°C 36.4°F2.4°C 88% 4.6 mph E7.4 kmh E 9.2 mph14.8 kmh 29.17 in987.8 mb - 0.01 in0.3 mm 0.05 in1.3 mm
01:00 AM 39.5°F4.2°C 36.2°F2.3°C 88% 4.6 mph SE7.4 kmh SE 13.8 mph22.2 kmh 29.17 in987.8 mb - 0.00 in0.0 mm 0.05 in1.3 mm
01:10 AM 39.3°F4.1°C 36.0°F2.2°C 88% 4.6 mph NW7.4 kmh NW 9.2 mph14.8 kmh 29.16 in987.5 mb - 0.00 in0.0 mm 0.05 in1.3 mm
01:20 AM 39.1°F3.9°C 35.8°F2.1°C 88% 4.6 mph NNW7.4 kmh NNW 15.0 mph24.1 kmh 29.16 in987.5 mb - 0.00 in0.0 mm 0.05 in1.3 mm
01:30 AM 39.0°F3.9°C 35.7°F2.1°C 88% 3.5 mph NW5.6 kmh NW 10.4 mph16.7 kmh 29.16 in987.5 mb - 0.01 in0.3 mm 0.06 in1.5 mm
01:40 AM 38.9°F3.8°C 35.9°F2.2°C 89% 4.6 mph NW7.4 kmh NW 8.1 mph13.0 kmh 29.16 in987.5 mb - 0.00 in0.0 mm 0.06 in1.5 mm
01:50 AM 39.0°F3.9°C 36.0°F2.2°C 89% 4.6 mph N7.4 kmh N 11.5 mph18.5 kmh 29.16 in987.5 mb - 0.00 in0.0 mm 0.06 in1.5 mm
02:00 AM 39.1°F3.9°C 36.1°F2.3°C 89% 8.1 mph NNW13.0 kmh NNW 9.2 mph14.8 kmh 29.17 in987.8 mb - 0.00 in0.0 mm 0.06 in1.5 mm
02:10 AM 39.3°F4.1°C 36.3°F2.4°C 89% 5.8 mph NW9.3 kmh NW 9.2 mph14.8 kmh 29.18 in988.1 mb - 0.00 in0.0 mm 0.06 in1.5 mm
02:20 AM 39.5°F4.2°C 36.5°F2.5°C 89% 8.1 mph NNW13.0 kmh NNW 13.8 mph22.2 kmh 29.18 in988.1 mb - 0.00 in0.0 mm 0.06 in1.5 mm
02:30 AM 39.9°F4.4°C 36.9°F2.7°C 89% 10.4 mph NW16.7 kmh NW 16.1 mph25.9 kmh 29.20 in988.8 mb - 0.00 in0.0 mm 0.06 in1.5 mm
02:40 AM 39.9°F4.4°C 36.9°F2.7°C 89% 10.4 mph NW16.7 kmh NW 16.1 mph25.9 kmh 29.20 in988.8 mb - 0.00 in0.0 mm 0.06 in1.5 mm
02:50 AM 39.9°F4.4°C 36.6°F2.6°C 88% 6.9 mph NW11.1 kmh NW 12.7 mph20.4 kmh 29.20 in988.8 mb - 0.00 in0.0 mm 0.06 in1.5 mm
03:00 AM 39.9°F4.4°C 36.6°F2.6°C 88% 8.1 mph NW13.0 kmh NW 12.7 mph20.4 kmh 29.21 in989.2 mb - 0.00 in0.0 mm 0.06 in1.5 mm
03:10 AM 39.9°F4.4°C 36.3°F2.4°C 87% 8.1 mph NW13.0 kmh NW 12.7 mph20.4 kmh 29.21 in989.2 mb - 0.00 in0.0 mm 0.06 in1.5 mm
03:20 AM 40.0°F4.4°C 36.4°F2.4°C 87% 5.8 mph NW9.3 kmh NW 8.1 mph13.0 kmh 29.22 in989.5 mb - 0.00 in0.0 mm 0.06 in1.5 mm
03:30 AM 40.2°F4.6°C 36.3°F2.4°C 86% 6.9 mph NW11.1 kmh NW 9.2 mph14.8 kmh 29.22 in989.5 mb - 0.00 in0.0 mm 0.06 in1.5 mm
03:40 AM 40.6°F4.8°C 36.4°F2.4°C 85% 6.9 mph NNW11.1 kmh NNW 13.8 mph22.2 kmh 29.22 in989.5 mb - 0.00 in0.0 mm 0.06 in1.5 mm
03:50 AM 40.7°F4.8°C 36.2°F2.3°C 84% 4.6 mph NW7.4 kmh NW 13.8 mph22.2 kmh 29.22 in989.5 mb - 0.00 in0.0 mm 0.06 in1.5 mm
04:00 AM 40.9°F4.9°C 36.1°F2.3°C 83% 5.8 mph NNW9.3 kmh NNW 8.1 mph13.0 kmh 29.23 in989.8 mb - 0.00 in0.0 mm 0.06 in1.5 mm
04:10 AM 40.9°F4.9°C 36.1°F2.3°C 83% 4.6 mph NW7.4 kmh NW 8.1 mph13.0 kmh 29.23 in989.8 mb - 0.00 in0.0 mm 0.06 in1.5 mm
04:20 AM 40.6°F4.8°C 36.1°F2.3°C 84% 3.5 mph WNW5.6 kmh WNW 8.1 mph13.0 kmh 29.24 in990.2 mb - 0.00 in0.0 mm 0.06 in1.5 mm
04:30 AM 40.3°F4.6°C 36.1°F2.3°C 85% 2.3 mph WNW3.7 kmh WNW 4.6 mph7.4 kmh 29.24 in990.2 mb - 0.00 in0.0 mm 0.06 in1.5 mm
04:40 AM 40.1°F4.5°C 36.0°F2.2°C 85% 3.5 mph WNW5.6 kmh WNW 5.8 mph9.3 kmh 29.24 in990.2 mb - 0.00 in0.0 mm 0.06 in1.5 mm
04:50 AM 40.0°F4.4°C 36.2°F2.3°C 86% 2.3 mph NW3.7 kmh NW 4.6 mph7.4 kmh 29.25 in990.5 mb - 0.00 in0.0 mm 0.06 in1.5 mm
05:00 AM 40.0°F4.4°C 36.2°F2.3°C 86% 2.3 mph W3.7 kmh W 5.8 mph9.3 kmh 29.25 in990.5 mb - 0.00 in0.0 mm 0.06 in1.5 mm
05:10 AM 40.1°F4.5°C 36.2°F2.3°C 86% 2.3 mph WNW3.7 kmh WNW 5.8 mph9.3 kmh 29.26 in990.9 mb - 0.00 in0.0 mm 0.06 in1.5 mm
05:20 AM 40.1°F4.5°C 36.2°F2.3°C 86% 2.3 mph WNW3.7 kmh WNW 5.8 mph9.3 kmh 29.26 in990.9 mb - 0.00 in0.0 mm 0.06 in1.5 mm
05:30 AM 40.0°F4.4°C 36.2°F2.3°C 86% 1.2 mph W1.9 kmh W 2.3 mph3.7 kmh 29.26 in990.9 mb - 0.00 in0.0 mm 0.06 in1.5 mm
05:40 AM 39.8°F4.3°C 36.0°F2.2°C 86% Calm Calm 2.3 mph3.7 kmh 29.26 in990.9 mb - 0.00 in0.0 mm 0.06 in1.5 mm
05:50 AM 39.7°F4.3°C 35.9°F2.2°C 86% Calm Calm -- 29.26 in990.9 mb - 0.00 in0.0 mm 0.06 in1.5 mm
06:00 AM 39.5°F4.2°C 35.7°F2.1°C 86% Calm Calm -- 29.26 in990.9 mb - 0.00 in0.0 mm 0.06 in1.5 mm
06:10 AM 39.2°F4.0°C 35.4°F1.9°C 86% Calm Calm -- 29.27 in991.2 mb - 0.00 in0.0 mm 0.06 in1.5 mm
06:20 AM 39.0°F3.9°C 35.2°F1.8°C 86% Calm Calm -- 29.27 in991.2 mb - 0.00 in0.0 mm 0.06 in1.5 mm
06:30 AM 38.9°F3.8°C 35.1°F1.7°C 86% Calm Calm -- 29.26 in990.9 mb - 0.00 in0.0 mm 0.06 in1.5 mm
06:40 AM 38.7°F3.7°C 35.2°F1.8°C 87% Calm Calm -- 29.27 in991.2 mb - 0.00 in0.0 mm 0.06 in1.5 mm
06:50 AM 38.4°F3.6°C 34.9°F1.6°C 87% Calm Calm -- 29.27 in991.2 mb - 0.00 in0.0 mm 0.06 in1.5 mm
07:00 AM 38.3°F3.5°C 34.8°F1.6°C 87% Calm Calm -- 29.27 in991.2 mb - 0.00 in0.0 mm 0.06 in1.5 mm
07:10 AM 38.5°F3.6°C 34.9°F1.6°C 87% Calm Calm -- 29.27 in991.2 mb - 0.00 in0.0 mm 0.06 in1.5 mm
07:20 AM 38.2°F3.4°C 34.7°F1.5°C 87% Calm Calm -- 29.28 in991.5 mb - 0.00 in0.0 mm 0.06 in1.5 mm
07:30 AM 37.9°F3.3°C 34.4°F1.3°C 87% Calm Calm -- 29.28 in991.5 mb - 0.00 in0.0 mm 0.06 in1.5 mm
07:40 AM 37.7°F3.2°C 34.2°F1.2°C 87% Calm Calm -- 29.28 in991.5 mb - 0.00 in0.0 mm 0.06 in1.5 mm
07:50 AM 37.9°F3.3°C 34.4°F1.3°C 87% Calm Calm -- 29.28 in991.5 mb - 0.00 in0.0 mm 0.06 in1.5 mm
08:00 AM 37.8°F3.2°C 34.3°F1.3°C 87% Calm Calm -- 29.28 in991.5 mb - 0.00 in0.0 mm 0.06 in1.5 mm
08:10 AM 37.7°F3.2°C 34.5°F1.4°C 88% Calm Calm -- 29.29 in991.9 mb - 0.00 in0.0 mm 0.06 in1.5 mm
08:20 AM 37.9°F3.3°C 34.7°F1.5°C 88% Calm Calm -- 29.29 in991.9 mb - 0.00 in0.0 mm 0.06 in1.5 mm
08:30 AM 38.2°F3.4°C 35.0°F1.7°C 88% Calm Calm -- 29.30 in992.2 mb - 0.00 in0.0 mm 0.06 in1.5 mm
08:40 AM 38.8°F3.8°C 35.5°F1.9°C 88% 1.2 mph WNW1.9 kmh WNW 2.3 mph3.7 kmh 29.30 in992.2 mb - 0.00 in0.0 mm 0.06 in1.5 mm
08:50 AM 38.7°F3.7°C 35.5°F1.9°C 88% Calm Calm -- 29.30 in992.2 mb - 0.00 in0.0 mm 0.06 in1.5 mm
09:00 AM 38.1°F3.4°C 34.6°F1.4°C 87% Calm Calm -- 29.30 in992.2 mb - 0.00 in0.0 mm 0.06 in1.5 mm
09:10 AM 38.0°F3.3°C 34.8°F1.6°C 88% Calm Calm -- 29.31 in992.6 mb - 0.00 in0.0 mm 0.06 in1.5 mm
09:20 AM 38.0°F3.3°C 34.8°F1.6°C 88% Calm Calm -- 29.31 in992.6 mb - 0.00 in0.0 mm 0.06 in1.5 mm
09:30 AM 37.5°F3.1°C 34.3°F1.3°C 88% 1.2 mph S1.9 kmh S 2.3 mph3.7 kmh 29.30 in992.2 mb - 0.00 in0.0 mm 0.06 in1.5 mm
09:40 AM 37.7°F3.2°C 34.5°F1.4°C 88% Calm Calm 1.2 mph1.9 kmh 29.30 in992.2 mb - 0.00 in0.0 mm 0.06 in1.5 mm
09:50 AM 37.7°F3.2°C 34.5°F1.4°C 88% Calm Calm -- 29.30 in992.2 mb - 0.00 in0.0 mm 0.06 in1.5 mm
10:00 AM 37.6°F3.1°C 34.4°F1.3°C 88% Calm Calm -- 29.31 in992.6 mb - 0.00 in0.0 mm 0.06 in1.5 mm
10:10 AM 37.7°F3.2°C 34.5°F1.4°C 88% Calm Calm -- 29.31 in992.6 mb - 0.00 in0.0 mm 0.06 in1.5 mm
10:20 AM 38.2°F3.4°C 34.9°F1.6°C 88% Calm Calm -- 29.31 in992.6 mb - 0.00 in0.0 mm 0.06 in1.5 mm
10:30 AM 38.6°F3.7°C 35.4°F1.9°C 88% Calm Calm -- 29.32 in992.9 mb - 0.00 in0.0 mm 0.06 in1.5 mm
10:40 AM 38.8°F3.8°C 35.6°F2.0°C 88% Calm Calm -- 29.32 in992.9 mb - 0.00 in0.0 mm 0.06 in1.5 mm
10:50 AM 38.9°F3.8°C 35.6°F2.0°C 88% Calm Calm -- 29.32 in992.9 mb - 0.00 in0.0 mm 0.06 in1.5 mm
11:00 AM 38.9°F3.8°C 35.6°F2.0°C 88% Calm Calm -- 29.32 in992.9 mb - 0.00 in0.0 mm 0.06 in1.5 mm
11:10 AM 38.9°F3.8°C 35.6°F2.0°C 88% Calm Calm -- 29.32 in992.9 mb - 0.00 in0.0 mm 0.06 in1.5 mm
11:20 AM 39.0°F3.9°C 35.7°F2.1°C 88% Calm Calm -- 29.32 in992.9 mb - 0.00 in0.0 mm 0.06 in1.5 mm
11:30 AM 39.1°F3.9°C 35.8°F2.1°C 88% Calm Calm -- 29.32 in992.9 mb - 0.00 in0.0 mm 0.06 in1.5 mm
11:40 AM 39.1°F3.9°C 35.9°F2.2°C 88% Calm Calm -- 29.32 in992.9 mb - 0.00 in0.0 mm 0.06 in1.5 mm
11:50 AM 39.3°F4.1°C 35.8°F2.1°C 87% Calm Calm -- 29.32 in992.9 mb - 0.00 in0.0 mm 0.06 in1.5 mm
12:00 PM 39.3°F4.1°C 35.8°F2.1°C 87% Calm Calm -- 29.33 in993.2 mb - 0.00 in0.0 mm 0.06 in1.5 mm
12:10 PM 39.4°F4.1°C 35.9°F2.2°C 87% Calm Calm -- 29.33 in993.2 mb - 0.00 in0.0 mm 0.06 in1.5 mm
12:20 PM 39.6°F4.2°C 36.0°F2.2°C 87% Calm Calm -- 29.33 in993.2 mb - 0.00 in0.0 mm 0.06 in1.5 mm
12:30 PM 40.2°F4.6°C 36.6°F2.6°C 87% Calm Calm -- 29.33 in993.2 mb - 0.00 in0.0 mm 0.06 in1.5 mm
12:40 PM 41.2°F5.1°C 37.6°F3.1°C 87% Calm Calm -- 29.33 in993.2 mb - 0.00 in0.0 mm 0.06 in1.5 mm
12:50 PM 42.5°F5.8°C 38.9°F3.8°C 87% Calm Calm -- 29.33 in993.2 mb - 0.00 in0.0 mm 0.06 in1.5 mm
01:00 PM 43.7°F6.5°C 39.8°F4.3°C 86% Calm Calm -- 29.33 in993.2 mb - 0.00 in0.0 mm 0.06 in1.5 mm
01:10 PM 44.7°F7.1°C 40.8°F4.9°C 86% Calm Calm -- 29.33 in993.2 mb - 0.00 in0.0 mm 0.06 in1.5 mm
01:20 PM 45.2°F7.3°C 39.7°F4.3°C 81% 6.9 mph WNW11.1 kmh WNW 11.5 mph18.5 kmh 29.33 in993.2 mb - 0.00 in0.0 mm 0.06 in1.5 mm
01:30 PM 45.8°F7.7°C 39.7°F4.3°C 79% 4.6 mph W7.4 kmh W 8.1 mph13.0 kmh 29.33 in993.2 mb - 0.00 in0.0 mm 0.06 in1.5 mm
01:40 PM 45.8°F7.7°C 39.4°F4.1°C 78% 3.5 mph WNW5.6 kmh WNW 5.8 mph9.3 kmh 29.33 in993.2 mb - 0.00 in0.0 mm 0.06 in1.5 mm
01:50 PM 45.4°F7.4°C 38.9°F3.8°C 78% 3.5 mph W5.6 kmh W 6.9 mph11.1 kmh 29.33 in993.2 mb - 0.00 in0.0 mm 0.06 in1.5 mm
02:00 PM 45.2°F7.3°C 39.1°F3.9°C 79% 1.2 mph WNW1.9 kmh WNW 5.8 mph9.3 kmh 29.33 in993.2 mb - 0.00 in0.0 mm 0.06 in1.5 mm
02:10 PM 44.7°F7.1°C 38.6°F3.7°C 79% 2.3 mph W3.7 kmh W 6.9 mph11.1 kmh 29.33 in993.2 mb - 0.00 in0.0 mm 0.06 in1.5 mm
02:20 PM 43.9°F6.6°C 37.8°F3.2°C 79% 3.5 mph W5.6 kmh W 5.8 mph9.3 kmh 29.34 in993.6 mb - 0.00 in0.0 mm 0.06 in1.5 mm
02:30 PM 43.3°F6.3°C 37.5°F3.1°C 80% Calm Calm -- 29.34 in993.6 mb - 0.00 in0.0 mm 0.06 in1.5 mm
02:40 PM 43.2°F6.2°C 37.4°F3.0°C 80% 3.5 mph W5.6 kmh W 8.1 mph13.0 kmh 29.34 in993.6 mb - 0.00 in0.0 mm 0.06 in1.5 mm
02:50 PM 43.5°F6.4°C 37.7°F3.2°C 80% 3.5 mph W5.6 kmh W 5.8 mph9.3 kmh 29.34 in993.6 mb - 0.00 in0.0 mm 0.06 in1.5 mm
03:00 PM 43.5°F6.4°C 37.8°F3.2°C 80% 3.5 mph WSW5.6 kmh WSW 8.1 mph13.0 kmh 29.34 in993.6 mb - 0.00 in0.0 mm 0.06 in1.5 mm
03:10 PM 43.4°F6.3°C 37.9°F3.3°C 81% 1.2 mph WNW1.9 kmh WNW 4.6 mph7.4 kmh 29.34 in993.6 mb - 0.00 in0.0 mm 0.06 in1.5 mm
03:20 PM 43.1°F6.2°C 37.7°F3.2°C 81% Calm Calm -- 29.34 in993.6 mb - 0.00 in0.0 mm 0.06 in1.5 mm
03:30 PM 43.0°F6.1°C 37.6°F3.1°C 81% Calm Calm 2.3 mph3.7 kmh 29.34 in993.6 mb - 0.00 in0.0 mm 0.06 in1.5 mm
03:40 PM 43.0°F6.1°C 37.6°F3.1°C 81% Calm Calm -- 29.34 in993.6 mb - 0.00 in0.0 mm 0.06 in1.5 mm
03:50 PM 42.9°F6.1°C 37.8°F3.2°C 82% Calm Calm -- 29.34 in993.6 mb - 0.00 in0.0 mm 0.06 in1.5 mm
04:00 PM 42.7°F5.9°C 37.5°F3.1°C 82% 1.2 mph WSW1.9 kmh WSW 4.6 mph7.4 kmh 29.34 in993.6 mb - 0.00 in0.0 mm 0.06 in1.5 mm
04:10 PM 42.2°F5.7°C 37.1°F2.8°C 82% Calm Calm 2.3 mph3.7 kmh 29.34 in993.6 mb - 0.00 in0.0 mm 0.06 in1.5 mm
04:20 PM 41.6°F5.3°C 36.8°F2.7°C 83% 1.2 mph SW1.9 kmh SW 5.8 mph9.3 kmh 29.34 in993.6 mb - 0.00 in0.0 mm 0.06 in1.5 mm
04:30 PM 41.2°F5.1°C 36.4°F2.4°C 83% 1.2 mph S1.9 kmh S 5.8 mph9.3 kmh 29.35 in993.9 mb - 0.00 in0.0 mm 0.06 in1.5 mm
04:40 PM 40.8°F4.9°C 36.3°F2.4°C 84% Calm Calm -- 29.35 in993.9 mb - 0.00 in0.0 mm 0.06 in1.5 mm
04:50 PM 40.3°F4.6°C 35.8°F2.1°C 84% Calm Calm -- 29.35 in993.9 mb - 0.00 in0.0 mm 0.06 in1.5 mm
05:00 PM 39.6°F4.2°C 35.2°F1.8°C 84% Calm Calm -- 29.36 in994.2 mb - 0.00 in0.0 mm 0.06 in1.5 mm
05:10 PM 39.2°F4.0°C 35.1°F1.7°C 85% Calm Calm -- 29.36 in994.2 mb - 0.00 in0.0 mm 0.06 in1.5 mm
05:20 PM 39.0°F3.9°C 34.9°F1.6°C 85% Calm Calm -- 29.36 in994.2 mb - 0.00 in0.0 mm 0.06 in1.5 mm
05:30 PM 38.8°F3.8°C 34.6°F1.4°C 85% Calm Calm -- 29.36 in994.2 mb - 0.00 in0.0 mm 0.06 in1.5 mm
05:40 PM 38.3°F3.5°C 34.5°F1.4°C 86% Calm Calm -- 29.36 in994.2 mb - 0.00 in0.0 mm 0.06 in1.5 mm
05:50 PM 38.2°F3.4°C 34.3°F1.3°C 86% Calm Calm -- 29.36 in994.2 mb - 0.00 in0.0 mm 0.06 in1.5 mm
06:00 PM 38.0°F3.3°C 34.1°F1.2°C 86% Calm Calm -- 29.37 in994.6 mb - 0.00 in0.0 mm 0.06 in1.5 mm
06:10 PM 38.0°F3.3°C 34.2°F1.2°C 86% Calm Calm -- 29.37 in994.6 mb - 0.00 in0.0 mm 0.06 in1.5 mm
06:20 PM 38.3°F3.5°C 34.8°F1.6°C 87% Calm Calm -- 29.38 in994.9 mb - 0.00 in0.0 mm 0.06 in1.5 mm
06:30 PM 37.8°F3.2°C 34.3°F1.3°C 87% Calm Calm -- 29.37 in994.6 mb - 0.00 in0.0 mm 0.06 in1.5 mm
06:40 PM 37.6°F3.1°C 34.1°F1.2°C 87% Calm Calm -- 29.38 in994.9 mb - 0.00 in0.0 mm 0.06 in1.5 mm
06:50 PM 37.5°F3.1°C 34.0°F1.1°C 87% Calm Calm -- 29.38 in994.9 mb - 0.00 in0.0 mm 0.06 in1.5 mm
07:00 PM 37.3°F2.9°C 33.8°F1.0°C 87% Calm Calm -- 29.39 in995.3 mb - 0.00 in0.0 mm 0.06 in1.5 mm
07:10 PM 37.2°F2.9°C 33.7°F0.9°C 87% Calm Calm -- 29.39 in995.3 mb - 0.00 in0.0 mm 0.06 in1.5 mm
07:20 PM 36.8°F2.7°C 33.3°F0.7°C 87% Calm Calm -- 29.40 in995.6 mb - 0.00 in0.0 mm 0.06 in1.5 mm
07:30 PM 37.0°F2.8°C 33.8°F1.0°C 88% Calm Calm -- 29.40 in995.6 mb - 0.00 in0.0 mm 0.06 in1.5 mm
07:40 PM 36.8°F2.7°C 33.6°F0.9°C 88% Calm Calm -- 29.40 in995.6 mb - 0.00 in0.0 mm 0.06 in1.5 mm
07:50 PM 36.7°F2.6°C 33.5°F0.8°C 88% Calm Calm -- 29.41 in995.9 mb - 0.00 in0.0 mm 0.06 in1.5 mm
08:00 PM 36.6°F2.6°C 33.4°F0.8°C 88% Calm Calm -- 29.41 in995.9 mb - 0.00 in0.0 mm 0.06 in1.5 mm
08:10 PM 36.4°F2.4°C 33.2°F0.7°C 88% Calm Calm -- 29.42 in996.3 mb - 0.00 in0.0 mm 0.06 in1.5 mm
08:20 PM 36.7°F2.6°C 33.5°F0.8°C 88% Calm Calm -- 29.42 in996.3 mb - 0.00 in0.0 mm 0.06 in1.5 mm
08:30 PM 36.8°F2.7°C 33.5°F0.8°C 88% Calm Calm -- 29.42 in996.3 mb - 0.00 in0.0 mm 0.06 in1.5 mm
08:40 PM 36.4°F2.4°C 33.2°F0.7°C 88% Calm Calm -- 29.43 in996.6 mb - 0.00 in0.0 mm 0.06 in1.5 mm
08:50 PM 36.3°F2.4°C 33.1°F0.6°C 88% Calm Calm -- 29.43 in996.6 mb - 0.00 in0.0 mm 0.06 in1.5 mm
09:00 PM 35.8°F2.1°C 32.6°F0.3°C 88% Calm Calm -- 29.44 in997.0 mb - 0.00 in0.0 mm 0.06 in1.5 mm
09:10 PM 36.0°F2.2°C 35.2°F1.8°C 97% Calm Calm -- 29.44 in997.0 mb - 0.00 in0.0 mm 0.06 in1.5 mm
09:20 PM 35.7°F2.1°C 35.0°F1.7°C 97% Calm Calm -- 29.44 in997.0 mb - 0.00 in0.0 mm 0.06 in1.5 mm
09:30 PM 35.4°F1.9°C 34.6°F1.4°C 97% Calm Calm -- 29.45 in997.3 mb - 0.00 in0.0 mm 0.06 in1.5 mm
09:40 PM 35.4°F1.9°C 34.6°F1.4°C 97% Calm Calm -- 29.45 in997.3 mb - 0.00 in0.0 mm 0.06 in1.5 mm
09:50 PM 35.5°F1.9°C 34.7°F1.5°C 97% Calm Calm -- 29.45 in997.3 mb - 0.00 in0.0 mm 0.06 in1.5 mm
10:00 PM 35.2°F1.8°C 34.4°F1.3°C 97% Calm Calm -- 29.46 in997.6 mb - 0.00 in0.0 mm 0.06 in1.5 mm
10:10 PM 35.1°F1.7°C 34.3°F1.3°C 97% Calm Calm -- 29.46 in997.6 mb - 0.00 in0.0 mm 0.06 in1.5 mm
10:20 PM 34.8°F1.6°C 34.3°F1.3°C 98% Calm Calm -- 29.46 in997.6 mb - 0.00 in0.0 mm 0.06 in1.5 mm
10:30 PM 34.8°F1.6°C 34.3°F1.3°C 98% Calm Calm -- 29.47 in998.0 mb - 0.00 in0.0 mm 0.06 in1.5 mm
10:40 PM 34.6°F1.4°C 33.9°F1.1°C 97% Calm Calm -- 29.48 in998.3 mb - 0.00 in0.0 mm 0.06 in1.5 mm
10:50 PM 34.7°F1.5°C 33.9°F1.1°C 97% Calm Calm -- 29.48 in998.3 mb - 0.00 in0.0 mm 0.06 in1.5 mm
11:00 PM 34.6°F1.4°C 33.8°F1.0°C 97% Calm Calm -- 29.48 in998.3 mb - 0.00 in0.0 mm 0.06 in1.5 mm
11:10 PM 33.9°F1.1°C 33.2°F0.7°C 97% Calm Calm -- 29.49 in998.6 mb - 0.00 in0.0 mm 0.06 in1.5 mm
11:20 PM 34.2°F1.2°C 33.4°F0.8°C 97% Calm Calm -- 29.50 in999.0 mb - 0.00 in0.0 mm 0.06 in1.5 mm
11:30 PM 34.1°F1.2°C 33.3°F0.7°C 97% Calm Calm -- 29.50 in999.0 mb - 0.00 in0.0 mm 0.06 in1.5 mm
11:40 PM 34.5°F1.4°C 33.7°F0.9°C 97% Calm Calm -- 29.51 in999.3 mb - 0.00 in0.0 mm 0.06 in1.5 mm
11:50 PM 34.4°F1.3°C 33.6°F0.9°C 97% Calm Calm -- 29.51 in999.3 mb - 0.00 in0.0 mm 0.06 in1.5 mm